Time;durP1;ratioP1;P1;durP2;ratioP2;P2;SDS_P1;SDS_P2;PMS_P1;PMS_P2;Temp;Humidity;BMP_temperature;BMP_pressure;BME280_temperature;BME280_humidity;BME280_pressure;Samples;Min_cycle;Max_cycle;Signal;HPM_P1;HPM_P2
2023/09/24 00:00:35;;;;;;;5.70;4.83;;;13.80;99.90;;;;;;5104169;28;20439;-62
2023/09/24 00:03:02;;;;;;;6.40;5.80;;;13.80;99.90;;;;;;5100617;28;20458;-63
2023/09/24 00:05:30;;;;;;;6.10;5.60;;;13.90;99.90;;;;;;5104090;28;20510;-63
2023/09/24 00:07:58;;;;;;;6.27;5.27;;;13.90;99.90;;;;;;5099751;28;20451;-63
2023/09/24 00:10:25;;;;;;;7.73;5.77;;;13.90;99.90;;;;;;5101004;28;20449;-62
2023/09/24 00:12:51;;;;;;;7.03;5.67;;;13.90;99.90;;;;;;5093606;28;20462;-62
2023/09/24 00:15:18;;;;;;;7.13;5.33;;;14.00;99.90;;;;;;5094569;28;20435;-62
2023/09/24 00:17:45;;;;;;;6.83;5.33;;;14.00;99.90;;;;;;5094132;28;20485;-62
2023/09/24 00:20:15;;;;;;;6.37;5.43;;;14.00;99.90;;;;;;5093268;28;20885;-62
2023/09/24 00:22:42;;;;;;;7.00;5.43;;;14.00;99.90;;;;;;5093375;28;20820;-62
2023/09/24 00:25:10;;;;;;;5.30;4.80;;;14.10;99.90;;;;;;5093301;28;20496;-61
2023/09/24 00:27:37;;;;;;;5.77;5.27;;;14.10;99.90;;;;;;5100813;28;20434;-62
2023/09/24 00:30:05;;;;;;;7.13;5.17;;;14.10;99.90;;;;;;5101568;28;20450;-62
2023/09/24 00:32:31;;;;;;;10.00;6.03;;;14.10;99.90;;;;;;5097417;28;20505;-62
2023/09/24 00:34:58;;;;;;;6.27;5.67;;;14.10;99.90;;;;;;5097262;28;20443;-62
2023/09/24 00:37:25;;;;;;;5.80;5.30;;;14.10;99.90;;;;;;5096945;28;20497;-62
2023/09/24 00:39:52;;;;;;;6.47;5.87;;;14.10;99.90;;;;;;5097413;28;20449;-62
2023/09/24 00:42:22;;;;;;;5.23;4.73;;;14.10;99.90;;;;;;5096745;28;20462;-62
2023/09/24 00:44:48;;;;;;;9.20;5.57;;;14.10;99.90;;;;;;5097184;28;20473;-62
2023/09/24 00:47:16;;;;;;;7.97;5.53;;;14.10;99.90;;;;;;5096537;28;20939;-63
2023/09/24 00:49:43;;;;;;;6.03;5.43;;;14.10;99.90;;;;;;5096669;28;21015;-62
2023/09/24 00:52:10;;;;;;;9.03;5.20;;;14.10;99.90;;;;;;5096928;28;20450;-62
2023/09/24 00:54:38;;;;;;;6.63;6.03;;;14.10;99.90;;;;;;5096491;28;20536;-62
2023/09/24 00:57:06;;;;;;;9.97;6.03;;;14.00;99.90;;;;;;5096628;28;20481;-62
2023/09/24 00:59:34;;;;;;;11.00;6.27;;;14.00;99.90;;;;;;5096508;28;20931;-63
2023/09/24 01:02:02;;;;;;;10.40;6.40;;;14.00;99.90;;;;;;5096744;28;20843;-62
2023/09/24 01:04:29;;;;;;;7.67;6.00;;;14.00;99.90;;;;;;5096772;28;20450;-62
2023/09/24 01:06:56;;;;;;;7.47;6.60;;;14.00;99.90;;;;;;5096452;28;20526;-63
2023/09/24 01:09:23;;;;;;;8.97;6.33;;;14.00;99.90;;;;;;5096271;28;20777;-62
2023/09/24 01:11:52;;;;;;;8.27;6.60;;;14.00;99.90;;;;;;5096063;28;20478;-62
2023/09/24 01:14:19;;;;;;;7.53;6.33;;;14.00;99.90;;;;;;5096547;28;20442;-62
2023/09/24 01:16:47;;;;;;;10.87;6.40;;;14.00;99.90;;;;;;5096060;28;20847;-62
2023/09/24 01:19:15;;;;;;;7.70;6.70;;;14.00;99.90;;;;;;5096417;28;20485;-61
2023/09/24 01:21:43;;;;;;;7.30;6.00;;;14.00;99.90;;;;;;5096002;28;20488;-62
2023/09/24 01:24:11;;;;;;;7.63;6.93;;;14.00;99.90;;;;;;5095571;28;20446;-62
2023/09/24 01:26:38;;;;;;;7.00;6.37;;;14.00;99.90;;;;;;5096028;28;20545;-61
2023/09/24 01:29:07;;;;;;;9.17;7.00;;;13.90;99.90;;;;;;5095742;28;20954;-62
2023/09/24 01:31:34;;;;;;;7.77;6.97;;;13.90;99.90;;;;;;5095802;28;20546;-62
2023/09/24 01:34:02;;;;;;;9.20;7.20;;;13.80;99.90;;;;;;5096625;28;20526;-62
2023/09/24 01:36:29;;;;;;;9.77;7.80;;;13.80;99.90;;;;;;5096387;28;20538;-62
2023/09/24 01:38:56;;;;;;;11.33;7.60;;;13.70;99.90;;;;;;5095341;28;20443;-62
2023/09/24 01:41:25;;;;;;;7.60;6.90;;;13.60;99.90;;;;;;5096593;28;20455;-62
2023/09/24 01:43:52;;;;;;;8.90;7.07;;;13.60;99.90;;;;;;5096543;28;20449;-62
2023/09/24 01:46:20;;;;;;;8.60;7.60;;;13.50;99.90;;;;;;5096145;28;20457;-63
2023/09/24 01:48:49;;;;;;;7.13;6.40;;;13.50;99.90;;;;;;5096198;28;20439;-62
2023/09/24 01:51:16;;;;;;;11.83;8.00;;;13.50;99.90;;;;;;5096400;28;20553;-61
2023/09/24 01:53:43;;;;;;;9.70;7.80;;;13.40;99.90;;;;;;5095995;28;20460;-62
2023/09/24 01:56:10;;;;;;;10.00;7.50;;;13.40;99.90;;;;;;5096193;28;20508;-63
2023/09/24 01:58:38;;;;;;;8.90;7.40;;;13.40;99.90;;;;;;5095536;28;20510;-61
2023/09/24 02:01:06;;;;;;;11.33;7.93;;;13.30;99.90;;;;;;5095923;28;20455;-62
2023/09/24 02:03:34;;;;;;;7.93;7.13;;;13.30;99.90;;;;;;5095580;28;20443;-62
2023/09/24 02:06:01;;;;;;;10.03;8.50;;;13.30;99.90;;;;;;5095821;28;20495;-62
2023/09/24 02:08:29;;;;;;;13.40;8.17;;;13.20;99.90;;;;;;5096243;28;20441;-63
2023/09/24 02:10:57;;;;;;;9.23;7.90;;;13.20;99.90;;;;;;5095609;28;20462;-62
2023/09/24 02:13:24;;;;;;;8.33;7.60;;;13.20;99.90;;;;;;5095723;28;20442;-62
2023/09/24 02:15:52;;;;;;;8.40;7.60;;;13.20;99.90;;;;;;5096760;28;20445;-61
2023/09/24 02:18:19;;;;;;;8.70;7.43;;;13.10;99.90;;;;;;5095526;28;20484;-60
2023/09/24 02:20:47;;;;;;;9.17;8.20;;;13.00;99.90;;;;;;5095698;28;20482;-61
2023/09/24 02:23:14;;;;;;;8.93;7.10;;;13.00;99.90;;;;;;5095437;28;20474;-62
2023/09/24 02:25:41;;;;;;;15.03;7.83;;;12.90;99.90;;;;;;5095337;28;20446;-62
2023/09/24 02:28:07;;;;;;;9.20;8.30;;;12.90;99.90;;;;;;5095062;28;20441;-61
2023/09/24 02:30:36;;;;;;;10.40;8.20;;;12.80;99.90;;;;;;5095030;28;20438;-62
2023/09/24 02:33:05;;;;;;;10.10;8.17;;;12.80;99.90;;;;;;5094996;28;20477;-62
2023/09/24 02:35:31;;;;;;;10.17;8.30;;;12.70;99.90;;;;;;5094760;28;20819;-63
2023/09/24 02:37:58;;;;;;;10.73;9.03;;;12.80;99.90;;;;;;5094326;28;20478;-62
2023/09/24 02:40:27;;;;;;;14.00;7.77;;;12.70;99.90;;;;;;5095206;28;20442;-62
2023/09/24 02:42:56;;;;;;;8.97;7.70;;;12.70;99.90;;;;;;5094182;28;20976;-62
2023/09/24 02:45:23;;;;;;;8.70;7.90;;;12.60;99.90;;;;;;5094229;28;20978;-62
2023/09/24 02:47:51;;;;;;;9.03;8.10;;;12.60;99.90;;;;;;5094185;28;20944;-62
2023/09/24 02:50:22;;;;;;;8.30;7.50;;;12.50;99.90;;;;;;5093639;28;20817;-63
2023/09/24 02:52:50;;;;;;;10.03;7.70;;;12.50;99.90;;;;;;5094117;28;20463;-62
2023/09/24 02:55:17;;;;;;;9.50;8.20;;;12.50;99.90;;;;;;5094036;28;20442;-62
2023/09/24 02:57:46;;;;;;;8.40;7.40;;;12.50;99.90;;;;;;5094168;28;20475;-61
2023/09/24 03:00:18;;;;;;;8.90;8.00;;;12.40;99.90;;;;;;5094473;28;20447;-62
2023/09/24 03:02:44;;;;;;;8.77;7.00;;;12.40;99.90;;;;;;5094054;28;20527;-63
2023/09/24 03:05:15;;;;;;;11.03;7.00;;;12.40;99.90;;;;;;5094190;28;20928;-62
2023/09/24 03:07:44;;;;;;;11.37;8.20;;;12.40;99.90;;;;;;5095022;28;20526;-62
2023/09/24 03:10:13;;;;;;;6.87;6.17;;;12.30;99.90;;;;;;5094140;28;20940;-62
2023/09/24 03:12:40;;;;;;;8.27;7.47;;;12.30;99.90;;;;;;5094545;28;20520;-62
2023/09/24 03:15:10;;;;;;;9.70;7.57;;;12.30;99.90;;;;;;5094171;28;20439;-61
2023/09/24 03:17:37;;;;;;;8.33;7.50;;;12.30;99.90;;;;;;5094216;28;20544;-62
2023/09/24 03:20:15;;;;;;;9.50;8.13;;;12.40;99.90;;;;;;5094124;28;20470;-61
2023/09/24 03:22:43;;;;;;;9.43;8.20;;;12.40;99.90;;;;;;5094303;28;20554;-63
2023/09/24 03:25:11;;;;;;;8.17;7.40;;;12.50;99.90;;;;;;5093735;28;20877;-62
2023/09/24 03:27:39;;;;;;;8.00;7.23;;;12.60;99.90;;;;;;5094555;28;20811;-62
2023/09/24 03:30:09;;;;;;;9.60;7.53;;;12.60;99.90;;;;;;5094498;28;20431;-62
2023/09/24 03:32:37;;;;;;;11.77;8.80;;;12.70;99.90;;;;;;5093360;28;20466;-61
2023/09/24 03:35:05;;;;;;;8.03;7.27;;;12.70;99.90;;;;;;5094056;28;20443;-62
2023/09/24 03:37:32;;;;;;;9.90;7.60;;;12.80;99.90;;;;;;5093774;28;20478;-60
2023/09/24 03:40:00;;;;;;;9.83;8.07;;;12.90;99.90;;;;;;5093554;28;20443;-62
2023/09/24 03:42:28;;;;;;;11.20;10.00;;;12.90;99.90;;;;;;5093571;28;20454;-62
2023/09/24 03:44:55;;;;;;;10.07;8.17;;;12.90;99.90;;;;;;5094295;28;20474;-62
2023/09/24 03:47:21;;;;;;;10.23;7.97;;;12.90;99.90;;;;;;5093303;28;20445;-62
2023/09/24 03:49:48;;;;;;;11.20;8.23;;;12.90;99.90;;;;;;5093300;28;20787;-62
2023/09/24 03:52:15;;;;;;;9.90;8.90;;;12.80;99.90;;;;;;5092962;28;20972;-62
2023/09/24 03:54:42;;;;;;;10.97;8.80;;;12.80;99.90;;;;;;5093459;28;20446;-62
2023/09/24 03:57:10;;;;;;;10.90;9.10;;;12.80;99.90;;;;;;5093280;28;20451;-61
2023/09/24 03:59:37;;;;;;;10.70;9.60;;;12.70;99.90;;;;;;5093168;28;20478;-62
2023/09/24 04:02:06;;;;;;;11.80;9.93;;;12.70;99.90;;;;;;5093242;28;20469;-63
2023/09/24 04:04:33;;;;;;;9.97;8.93;;;12.70;99.90;;;;;;5093331;28;20451;-63
2023/09/24 04:07:02;;;;;;;10.90;9.83;;;12.70;99.90;;;;;;5092719;28;20896;-62
2023/09/24 04:12:15;;;;;;;11.87;10.67;;;12.60;99.90;;;;;;5131808;27;20550;-62
2023/09/24 04:14:41;;;;;;;11.53;10.33;;;12.70;99.90;;;;;;5132020;28;20440;-62
2023/09/24 04:17:09;;;;;;;14.73;11.20;;;12.70;99.90;;;;;;5131449;28;20548;-63
2023/09/24 04:19:36;;;;;;;18.27;11.10;;;12.70;99.90;;;;;;5131147;28;20927;-63
2023/09/24 04:22:02;;;;;;;20.70;13.10;;;12.80;99.90;;;;;;5131117;28;20521;-60
2023/09/24 04:24:29;;;;;;;14.70;12.03;;;12.80;99.90;;;;;;5131175;28;20806;-62
2023/09/24 04:26:56;;;;;;;18.90;13.03;;;12.90;99.90;;;;;;5131344;28;20456;-61
2023/09/24 04:29:24;;;;;;;17.70;13.70;;;12.90;99.90;;;;;;5131450;27;20915;-62
2023/09/24 04:31:51;;;;;;;17.80;13.30;;;13.00;99.90;;;;;;5130874;28;20989;-62
2023/09/24 04:34:19;;;;;;;14.57;12.57;;;13.00;99.90;;;;;;5130793;28;20445;-62
2023/09/24 04:36:46;;;;;;;17.93;11.93;;;13.00;99.90;;;;;;5130790;28;20471;-62
2023/09/24 04:39:13;;;;;;;14.30;12.80;;;13.00;99.90;;;;;;5131042;28;20537;-62
2023/09/24 04:41:41;;;;;;;14.77;12.90;;;13.00;99.90;;;;;;5130772;28;20480;-61
2023/09/24 04:44:08;;;;;;;14.17;12.67;;;13.00;99.90;;;;;;5130859;28;20440;-61
2023/09/24 04:46:36;;;;;;;15.47;13.33;;;13.10;99.90;;;;;;5130755;28;20438;-61
2023/09/24 04:49:04;;;;;;;14.27;12.20;;;13.10;99.90;;;;;;5130440;28;20811;-63
2023/09/24 04:51:32;;;;;;;15.37;12.10;;;13.10;99.90;;;;;;5130736;28;20480;-62
2023/09/24 04:54:00;;;;;;;16.80;12.70;;;13.20;99.90;;;;;;5131014;28;20472;-62
2023/09/24 04:56:27;;;;;;;14.73;13.13;;;13.20;99.90;;;;;;5131300;28;20437;-62
2023/09/24 04:58:54;;;;;;;17.37;12.00;;;13.20;99.90;;;;;;5130835;28;20437;-62
2023/09/24 05:01:20;;;;;;;17.57;13.40;;;13.30;99.90;;;;;;5130367;27;20464;-62
2023/09/24 05:03:50;;;;;;;11.77;10.57;;;13.30;99.90;;;;;;5130502;28;20444;-60
2023/09/24 05:06:18;;;;;;;14.87;12.27;;;13.30;99.90;;;;;;5130038;28;21007;-62
2023/09/24 05:08:44;;;;;;;12.53;11.23;;;13.40;99.90;;;;;;5130102;28;20447;-62
2023/09/24 05:11:11;;;;;;;12.70;10.13;;;13.40;99.90;;;;;;5130123;28;20488;-62
2023/09/24 05:13:38;;;;;;;14.33;9.77;;;13.40;99.90;;;;;;5130787;27;20813;-62
2023/09/24 05:16:05;;;;;;;16.10;11.93;;;13.40;99.90;;;;;;5130372;28;20957;-61
2023/09/24 05:18:33;;;;;;;12.60;10.27;;;13.40;99.90;;;;;;5130580;28;20445;-62
2023/09/24 05:21:02;;;;;;;12.87;9.33;;;13.50;99.90;;;;;;5129843;28;20433;-59
2023/09/24 05:23:29;;;;;;;11.10;9.30;;;13.50;99.90;;;;;;5116960;28;20797;-62
2023/09/24 05:25:56;;;;;;;10.70;9.70;;;13.50;99.90;;;;;;5116909;28;20442;-62
2023/09/24 05:28:23;;;;;;;11.57;9.37;;;13.60;99.90;;;;;;5116977;28;20467;-61
2023/09/24 05:30:53;;;;;;;11.33;9.07;;;13.60;99.90;;;;;;5116086;28;20994;-62
2023/09/24 05:33:20;;;;;;;10.63;9.50;;;13.60;99.90;;;;;;5117314;28;20463;-59
2023/09/24 05:35:50;;;;;;;12.67;9.80;;;13.70;99.90;;;;;;5116567;28;20448;-60
2023/09/24 05:38:19;;;;;;;12.00;9.80;;;13.70;99.90;;;;;;5116183;28;20917;-61
2023/09/24 05:40:46;;;;;;;9.67;8.43;;;13.70;99.90;;;;;;5116127;28;20438;-60
2023/09/24 05:43:12;;;;;;;11.80;8.87;;;13.80;99.90;;;;;;5116240;28;20449;-61
2023/09/24 05:45:45;;;;;;;9.03;8.10;;;13.80;99.90;;;;;;5116233;28;20445;-61
2023/09/24 05:48:13;;;;;;;12.10;10.23;;;13.80;99.90;;;;;;5116138;28;20517;-61
2023/09/24 05:50:41;;;;;;;12.97;9.30;;;13.80;99.90;;;;;;5116109;28;20484;-61
2023/09/24 05:53:08;;;;;;;13.13;10.93;;;13.90;99.90;;;;;;5116321;28;20469;-61
2023/09/24 05:55:37;;;;;;;9.33;8.43;;;13.90;99.90;;;;;;5116242;28;20437;-61
2023/09/24 05:58:04;;;;;;;15.63;9.80;;;13.90;99.90;;;;;;5116404;28;20503;-62
2023/09/24 06:00:31;;;;;;;10.00;8.50;;;14.00;99.90;;;;;;5116236;28;20453;-61
2023/09/24 06:02:58;;;;;;;8.97;8.17;;;14.00;99.90;;;;;;5117833;28;20487;-61
2023/09/24 06:05:25;;;;;;;9.63;8.30;;;14.00;99.90;;;;;;5116013;28;20448;-62
2023/09/24 06:07:52;;;;;;;9.27;8.33;;;14.00;99.90;;;;;;5115723;28;20448;-62
2023/09/24 06:10:20;;;;;;;8.70;7.90;;;14.00;99.90;;;;;;5115723;28;20450;-62
2023/09/24 06:12:48;;;;;;;8.90;7.33;;;14.10;99.90;;;;;;5116137;28;20488;-61
2023/09/24 06:15:17;;;;;;;8.83;7.70;;;14.10;99.90;;;;;;5115757;28;20438;-62
2023/09/24 06:17:44;;;;;;;8.53;7.27;;;14.10;99.90;;;;;;5115836;28;20452;-61
2023/09/24 06:20:12;;;;;;;13.10;7.63;;;14.10;99.90;;;;;;5115918;28;20442;-62
2023/09/24 06:22:40;;;;;;;8.97;8.07;;;14.20;99.90;;;;;;5116300;28;20457;-62
2023/09/24 06:25:07;;;;;;;9.23;7.83;;;14.20;99.90;;;;;;5116587;28;20442;-62
2023/09/24 06:27:34;;;;;;;8.23;7.37;;;14.20;99.90;;;;;;5115631;28;20438;-62
2023/09/24 06:30:04;;;;;;;10.10;7.63;;;14.30;99.90;;;;;;5118408;28;20477;-61
2023/09/24 06:32:32;;;;;;;10.93;7.50;;;14.30;99.90;;;;;;5115372;28;21051;-61
2023/09/24 06:34:58;;;;;;;7.13;6.43;;;14.40;99.90;;;;;;5114370;28;20460;-62
2023/09/24 06:37:25;;;;;;;9.93;8.23;;;14.40;99.90;;;;;;5118362;28;20934;-61
2023/09/24 06:39:52;;;;;;;8.50;7.70;;;14.40;99.90;;;;;;5115827;28;20509;-62
2023/09/24 06:42:19;;;;;;;12.77;7.57;;;14.40;99.90;;;;;;5115399;28;20454;-62
2023/09/24 06:44:46;;;;;;;7.40;6.70;;;14.50;99.90;;;;;;5117115;28;20434;-62
2023/09/24 06:47:14;;;;;;;7.07;6.40;;;14.50;99.90;;;;;;5115513;28;20446;-61
2023/09/24 06:49:41;;;;;;;7.80;6.90;;;14.60;99.90;;;;;;5115758;28;20445;-63
2023/09/24 06:52:08;;;;;;;9.20;6.60;;;14.60;99.90;;;;;;5116688;28;20477;-61
2023/09/24 06:54:35;;;;;;;8.13;6.23;;;14.60;99.90;;;;;;5115883;28;20434;-62
2023/09/24 06:57:01;;;;;;;6.60;6.00;;;14.60;99.90;;;;;;5119781;28;20441;-61
2023/09/24 06:59:28;;;;;;;9.07;6.90;;;14.60;99.90;;;;;;5116146;28;20438;-62
2023/09/24 07:01:55;;;;;;;6.43;5.60;;;14.70;99.90;;;;;;5115735;28;20568;-58
2023/09/24 07:04:23;;;;;;;5.53;4.97;;;14.70;99.90;;;;;;5115484;28;20438;-61
2023/09/24 07:06:51;;;;;;;10.20;6.93;;;14.80;99.90;;;;;;5117519;28;20449;-61
2023/09/24 07:09:18;;;;;;;6.67;5.97;;;14.90;99.90;;;;;;5115502;28;20444;-61
2023/09/24 07:11:45;;;;;;;9.63;5.80;;;14.90;99.90;;;;;;5114942;28;20496;-61
2023/09/24 07:14:12;;;;;;;7.63;6.23;;;15.00;99.90;;;;;;5115668;28;20442;-61
2023/09/24 07:16:39;;;;;;;6.73;6.03;;;15.10;99.90;;;;;;5115391;28;20437;-62
2023/09/24 07:19:05;;;;;;;6.40;5.57;;;15.10;99.90;;;;;;5115734;28;20442;-62
2023/09/24 07:21:34;;;;;;;8.33;6.30;;;15.20;99.90;;;;;;5115614;28;20489;-62
2023/09/24 07:24:03;;;;;;;7.90;6.03;;;15.30;99.90;;;;;;5116521;28;20463;-61
2023/09/24 07:26:29;;;;;;;6.13;5.53;;;15.40;99.90;;;;;;5116175;28;20849;-61
2023/09/24 07:28:56;;;;;;;6.10;5.43;;;15.60;99.90;;;;;;5115801;28;20517;-62
2023/09/24 07:31:25;;;;;;;6.10;5.50;;;15.70;99.90;;;;;;5115663;28;20485;-62
2023/09/24 07:33:54;;;;;;;6.87;6.27;;;15.80;99.90;;;;;;5114807;28;20935;-62
2023/09/24 07:36:21;;;;;;;9.80;6.37;;;15.90;99.90;;;;;;5115229;28;20470;-62
2023/09/24 07:38:50;;;;;;;5.67;5.17;;;16.00;99.90;;;;;;5115459;28;20442;-62
2023/09/24 07:41:18;;;;;;;5.20;4.80;;;16.10;99.90;;;;;;5115000;28;20453;-61
2023/09/24 07:43:46;;;;;;;5.60;4.43;;;16.20;99.90;;;;;;5114321;28;20491;-63
2023/09/24 07:46:14;;;;;;;6.60;5.60;;;16.30;99.90;;;;;;5114252;28;20476;-62
2023/09/24 07:48:42;;;;;;;6.10;5.33;;;16.40;99.90;;;;;;5114984;28;20469;-60
2023/09/24 07:51:09;;;;;;;7.10;4.70;;;16.40;99.90;;;;;;5115581;28;20461;-61
2023/09/24 07:53:36;;;;;;;4.60;4.20;;;16.60;99.90;;;;;;5115610;28;20503;-60
2023/09/24 07:56:07;;;;;;;5.83;4.30;;;16.60;99.90;;;;;;5115456;28;20444;-61
2023/09/24 07:58:34;;;;;;;6.27;4.50;;;16.60;99.90;;;;;;5115791;27;20497;-61
2023/09/24 08:01:03;;;;;;;6.33;3.90;;;16.60;99.90;;;;;;5114889;28;20434;-62
2023/09/24 08:03:30;;;;;;;5.20;4.57;;;16.70;99.90;;;;;;5121960;28;20438;-62
2023/09/24 08:05:57;;;;;;;3.70;3.40;;;16.70;99.90;;;;;;5121085;28;20840;-62
2023/09/24 08:08:24;;;;;;;4.97;4.40;;;16.70;99.90;;;;;;5118233;28;20438;-61
2023/09/24 08:10:51;;;;;;;4.77;4.30;;;16.70;99.90;;;;;;5120504;28;20476;-62
2023/09/24 08:13:19;;;;;;;4.33;3.90;;;16.80;99.90;;;;;;5121205;28;20469;-61
2023/09/24 08:15:46;;;;;;;6.10;3.80;;;17.00;99.90;;;;;;5124026;28;20442;-61
2023/09/24 08:18:13;;;;;;;4.73;3.70;;;17.20;99.90;;;;;;5126911;28;20467;-61
2023/09/24 08:20:40;;;;;;;3.83;3.53;;;17.50;99.90;;;;;;5127435;28;20430;-61
2023/09/24 08:23:07;;;;;;;4.27;3.40;;;17.70;99.90;;;;;;5121726;28;20454;-61
2023/09/24 08:25:35;;;;;;;4.50;3.33;;;17.90;99.90;;;;;;5123522;28;20472;-62
2023/09/24 08:28:02;;;;;;;3.33;3.03;;;17.90;99.90;;;;;;5125217;28;20457;-61
2023/09/24 08:30:32;;;;;;;3.90;3.17;;;18.10;99.90;;;;;;5125333;28;20438;-62
2023/09/24 08:33:00;;;;;;;3.50;2.97;;;18.10;99.90;;;;;;5123064;28;20477;-60
2023/09/24 08:35:27;;;;;;;3.07;2.80;;;18.10;99.90;;;;;;5123155;28;20445;-62
2023/09/24 08:37:54;;;;;;;4.60;3.03;;;18.10;99.90;;;;;;5123051;28;20444;-61
2023/09/24 08:40:21;;;;;;;3.37;2.70;;;18.30;99.70;;;;;;5123135;28;20438;-62
2023/09/24 08:42:49;;;;;;;3.10;2.77;;;18.40;98.70;;;;;;5121892;28;20449;-61
2023/09/24 08:45:18;;;;;;;4.67;2.70;;;18.50;98.10;;;;;;5122218;28;20530;-61
2023/09/24 08:47:47;;;;;;;3.90;2.87;;;18.50;97.50;;;;;;5117500;28;20445;-61
2023/09/24 08:50:15;;;;;;;3.67;2.43;;;18.60;97.00;;;;;;5116832;28;20808;-61
2023/09/24 08:52:44;;;;;;;3.33;2.50;;;18.80;96.50;;;;;;5114547;28;20480;-61
2023/09/24 08:55:13;;;;;;;3.67;2.33;;;19.00;95.80;;;;;;5118089;28;20528;-61
2023/09/24 08:57:40;;;;;;;3.50;3.20;;;19.20;94.70;;;;;;5124554;28;20956;-62
2023/09/24 09:00:10;;;;;;;3.03;2.47;;;19.20;93.70;;;;;;5126269;28;20442;-62
2023/09/24 09:02:37;;;;;;;4.97;2.50;;;19.20;93.50;;;;;;5125244;28;20472;-62
2023/09/24 09:05:11;;;;;;;5.07;2.30;;;19.10;93.00;;;;;;5126807;28;20437;-61
2023/09/24 09:07:38;;;;;;;2.87;2.10;;;19.20;92.70;;;;;;5128038;28;20442;-65
2023/09/24 09:10:05;;;;;;;2.70;2.00;;;19.20;92.30;;;;;;5122273;28;20441;-61
2023/09/24 09:12:32;;;;;;;3.17;2.00;;;19.30;91.80;;;;;;5119838;28;20481;-61
2023/09/24 09:14:59;;;;;;;2.87;1.80;;;19.40;91.10;;;;;;5120444;28;20438;-59
2023/09/24 09:17:40;;;;;;;4.50;2.40;;;19.50;90.60;;;;;;5119253;28;20444;-61
2023/09/24 09:20:09;;;;;;;4.20;2.40;;;19.50;90.20;;;;;;5120348;28;20430;-62
2023/09/24 09:22:38;;;;;;;1.97;1.87;;;19.60;89.60;;;;;;5119839;28;20453;-59
2023/09/24 09:25:07;;;;;;;2.70;2.23;;;19.60;88.90;;;;;;5119454;28;20481;-61
2023/09/24 09:27:34;;;;;;;2.60;2.27;;;19.80;87.90;;;;;;5119209;28;20438;-61
2023/09/24 09:30:15;;;;;;;2.13;1.90;;;20.00;86.50;;;;;;5119453;28;20438;-61
2023/09/24 09:32:43;;;;;;;2.80;2.13;;;20.10;84.20;;;;;;5118580;28;20483;-61
2023/09/24 09:35:11;;;;;;;4.70;2.80;;;20.20;83.10;;;;;;5119275;28;20866;-61
2023/09/24 09:37:38;;;;;;;5.07;1.93;;;20.40;82.00;;;;;;5118978;28;20472;-60
2023/09/24 09:40:06;;;;;;;4.33;2.60;;;20.60;80.30;;;;;;5119860;28;20491;-61
2023/09/24 09:42:34;;;;;;;3.43;2.67;;;20.60;78.60;;;;;;5121168;28;20981;-60
2023/09/24 09:45:05;;;;;;;3.00;2.63;;;20.40;78.20;;;;;;5118976;28;20962;-58
2023/09/24 09:47:37;;;;;;;3.97;2.30;;;20.30;78.90;;;;;;5118315;28;20865;-61
2023/09/24 09:50:05;;;;;;;6.73;3.23;;;20.20;78.60;;;;;;5119960;28;20837;-62
2023/09/24 09:52:37;;;;;;;3.83;2.70;;;20.20;78.10;;;;;;5119223;28;20537;-62
2023/09/24 09:55:06;;;;;;;4.20;2.80;;;19.90;77.00;;;;;;5119095;28;20528;-61
2023/09/24 09:57:34;;;;;;;2.47;2.27;;;19.70;77.20;;;;;;5117632;27;20446;-61
2023/09/24 10:00:05;;;;;;;4.00;2.50;;;19.80;77.00;;;;;;5117491;28;20753;-61
2023/09/24 10:02:33;;;;;;;3.67;2.40;;;19.80;76.80;;;;;;5117582;28;20454;-62
2023/09/24 10:05:01;;;;;;;4.00;2.93;;;20.00;76.40;;;;;;5117892;28;20446;-61
2023/09/24 10:07:28;;;;;;;4.00;3.20;;;20.20;75.30;;;;;;5118005;28;20461;-63
2023/09/24 10:09:56;;;;;;;3.17;2.67;;;20.20;74.40;;;;;;5116766;28;20434;-61
2023/09/24 10:12:37;;;;;;;3.37;3.07;;;20.30;74.40;;;;;;5117002;28;20486;-61
2023/09/24 10:15:25;;;;;;;4.07;3.27;;;20.50;73.50;;;;;;5117723;28;20441;-59
2023/09/24 10:18:22;;;;;;;3.50;3.10;;;20.60;72.60;;;;;;5117277;28;20425;-61
2023/09/24 10:21:03;;;;;;;4.20;3.60;;;20.50;71.50;;;;;;5114754;27;20492;-62
2023/09/24 10:23:34;;;;;;;5.37;3.20;;;20.30;71.70;;;;;;5117238;28;20422;-62
2023/09/24 10:26:05;;;;;;;3.90;3.50;;;20.20;72.20;;;;;;5116435;28;20450;-62
2023/09/24 10:28:48;;;;;;;4.23;3.20;;;20.30;72.30;;;;;;5116910;28;20452;-62
2023/09/24 10:31:16;;;;;;;2.80;2.60;;;20.40;71.90;;;;;;5116757;28;20545;-61
2023/09/24 10:33:57;;;;;;;3.40;2.50;;;20.60;71.00;;;;;;5115858;28;20474;-61
2023/09/24 10:36:26;;;;;;;2.80;2.60;;;20.80;70.30;;;;;;5117353;28;20438;-61
2023/09/24 10:39:06;;;;;;;3.93;2.60;;;21.00;69.10;;;;;;5117613;27;20442;-60
2023/09/24 10:41:36;;;;;;;2.50;2.30;;;21.10;68.20;;;;;;5117522;28;20466;-61
2023/09/24 10:44:22;;;;;;;3.37;2.50;;;21.30;67.90;;;;;;5118871;28;20525;-63
2023/09/24 10:46:49;;;;;;;3.03;2.73;;;21.40;65.80;;;;;;5117131;28;20489;-63
2023/09/24 10:49:19;;;;;;;3.53;2.73;;;21.50;65.10;;;;;;5116369;28;20434;-62
2023/09/24 10:51:45;;;;;;;2.43;2.23;;;21.50;64.50;;;;;;5116213;28;20935;-61
2023/09/24 10:54:14;;;;;;;4.57;2.90;;;21.60;63.80;;;;;;5116279;28;20804;-61
2023/09/24 10:56:46;;;;;;;3.20;2.50;;;21.60;63.10;;;;;;5116370;28;20433;-61
2023/09/24 10:59:13;;;;;;;2.60;2.40;;;21.40;63.20;;;;;;5116819;28;20430;-61
2023/09/24 11:01:40;;;;;;;3.27;2.20;;;21.40;63.20;;;;;;5116665;28;20470;-62
2023/09/24 11:04:08;;;;;;;2.60;2.20;;;21.30;63.00;;;;;;5116817;28;20779;-61
2023/09/24 11:06:35;;;;;;;2.07;1.80;;;21.30;63.20;;;;;;5115871;28;20534;-61
2023/09/24 11:09:22;;;;;;;2.67;2.47;;;21.40;62.70;;;;;;5115677;28;20528;-62
2023/09/24 11:11:51;;;;;;;2.47;2.27;;;21.40;62.10;;;;;;5109481;27;21135;-61
2023/09/24 11:14:22;;;;;;;2.30;2.10;;;21.40;61.90;;;;;;5117994;28;20848;-61
2023/09/24 11:16:50;;;;;;;2.87;2.20;;;21.50;61.30;;;;;;5116677;28;20912;-60
2023/09/24 11:19:41;;;;;;;2.27;2.00;;;21.50;61.30;;;;;;5116917;28;20846;-62
2023/09/24 11:22:16;;;;;;;2.37;2.03;;;21.30;60.30;;;;;;5118908;28;20990;-60
2023/09/24 11:24:43;;;;;;;2.47;2.00;;;21.20;60.50;;;;;;5118299;28;20418;-61
2023/09/24 11:27:11;;;;;;;2.27;1.93;;;21.10;60.60;;;;;;5116955;28;20498;-63
2023/09/24 11:29:38;;;;;;;4.23;2.17;;;21.20;60.80;;;;;;5117197;28;20433;-62
2023/09/24 11:32:05;;;;;;;2.13;1.93;;;21.40;60.60;;;;;;5115846;28;20461;-63
2023/09/24 11:34:32;;;;;;;3.77;2.10;;;21.50;60.00;;;;;;5116886;28;20452;-63
2023/09/24 11:36:59;;;;;;;3.57;2.13;;;21.40;59.90;;;;;;5116589;28;20441;-62
2023/09/24 11:39:26;;;;;;;3.53;2.33;;;21.40;59.80;;;;;;5116002;28;20940;-60
2023/09/24 11:41:53;;;;;;;3.43;1.93;;;21.30;60.00;;;;;;5116068;28;20994;-62
2023/09/24 11:44:21;;;;;;;2.80;2.17;;;21.20;60.00;;;;;;5115439;28;20434;-61
2023/09/24 11:46:48;;;;;;;3.00;1.97;;;21.10;60.20;;;;;;5115304;28;20825;-62
2023/09/24 11:49:15;;;;;;;3.37;1.97;;;21.20;60.40;;;;;;5115130;28;21019;-62
2023/09/24 11:51:41;;;;;;;1.80;1.70;;;21.40;60.10;;;;;;5115164;28;20461;-60
2023/09/24 11:54:13;;;;;;;1.60;1.50;;;21.50;59.80;;;;;;5116845;28;20852;-62
2023/09/24 11:56:39;;;;;;;1.97;1.40;;;21.60;59.30;;;;;;5116101;28;20444;-62
2023/09/24 11:59:06;;;;;;;2.50;1.63;;;21.80;58.90;;;;;;5115934;28;20441;-61
2023/09/24 12:01:34;;;;;;;2.90;1.80;;;21.90;58.60;;;;;;5115154;28;20473;-62
2023/09/24 12:04:01;;;;;;;2.50;1.63;;;22.00;58.40;;;;;;5118142;28;20441;-62
2023/09/24 12:06:28;;;;;;;1.90;1.70;;;22.10;57.90;;;;;;5116121;28;20498;-62
2023/09/24 12:08:55;;;;;;;2.10;1.83;;;22.20;57.70;;;;;;5114979;28;20513;-62
2023/09/24 12:11:22;;;;;;;2.60;1.80;;;22.30;57.50;;;;;;5114877;28;20562;-63
2023/09/24 12:13:50;;;;;;;3.27;2.07;;;22.30;57.20;;;;;;5115467;28;20492;-62
2023/09/24 12:16:17;;;;;;;2.37;1.80;;;22.30;57.10;;;;;;5114618;28;20485;-61
2023/09/24 12:18:46;;;;;;;2.93;1.90;;;22.20;56.70;;;;;;5115112;28;20444;-61
2023/09/24 12:21:13;;;;;;;3.57;1.80;;;22.10;56.70;;;;;;5115234;28;20474;-61
2023/09/24 12:23:39;;;;;;;2.30;1.77;;;22.00;56.70;;;;;;5115048;28;20440;-64
2023/09/24 12:26:06;;;;;;;2.27;1.60;;;22.00;56.80;;;;;;5117220;28;20438;-61
2023/09/24 12:28:33;;;;;;;3.30;1.40;;;21.90;56.60;;;;;;5115170;28;20445;-62
2023/09/24 12:31:00;;;;;;;2.00;1.60;;;21.80;56.70;;;;;;5116476;28;20429;-62
2023/09/24 12:33:27;;;;;;;2.60;1.33;;;21.60;56.70;;;;;;5118743;28;20564;-61
2023/09/24 12:35:56;;;;;;;2.47;1.40;;;21.50;57.00;;;;;;5119229;28;20444;-62
2023/09/24 12:38:22;;;;;;;1.70;1.27;;;21.30;57.10;;;;;;5119001;27;20442;-62
2023/09/24 12:40:49;;;;;;;2.07;1.20;;;21.10;57.00;;;;;;5118509;28;20444;-62
2023/09/24 12:43:16;;;;;;;1.87;1.57;;;20.80;57.40;;;;;;5119240;28;20484;-61
2023/09/24 12:45:44;;;;;;;2.23;2.03;;;20.60;57.80;;;;;;5119746;28;20444;-62
2023/09/24 12:48:11;;;;;;;3.17;1.73;;;20.60;58.20;;;;;;5119167;28;20942;-61
2023/09/24 12:50:38;;;;;;;1.87;1.23;;;20.80;58.00;;;;;;5119152;28;20510;-62